| time (UTC) | temp F | wind direction | speed MPH | gust MPH | rain 1hr in | rain 24hr in | rain mn in | humidity % | barometer mb |
| 20260510140023 | 69 | 140 | 4.0 | 12.0 | 0.00 | 0.00 | 0.00 | 73 | 1015.5 |
| 20260510134526 | 69 | 121 | 2.0 | 10.0 | 0.00 | 0.00 | 0.00 | 72 | 1015.3 |
| 20260510133015 | 69 | 102 | 2.0 | 9.0 | 0.00 | 0.00 | 0.00 | 73 | 1015.1 |
| 20260510131524 | 68 | 109 | 2.0 | 9.0 | 0.00 | 0.00 | 0.00 | 73 | 1015.1 |
| 20260510130025 | 68 | 133 | 3.0 | 11.0 | 0.00 | 0.00 | 0.00 | 73 | 1014.9 |
| 20260510124531 | 68 | 88 | 3.0 | 9.0 | 0.00 | 0.00 | 0.00 | 73 | 1014.8 |
| 20260510123029 | 68 | 81 | 3.0 | 9.0 | 0.00 | 0.00 | 0.00 | 73 | 1014.8 |
| 20260510121519 | 68 | 109 | 3.0 | 10.0 | 0.00 | 0.00 | 0.00 | 73 | 1014.6 |
| 20260510120018 | 68 | 82 | 4.0 | 12.0 | 0.00 | 0.00 | 0.00 | 73 | 1014.5 |
| 20260510120008 | 68 | 80 | 4.0 | 12.0 | 0.00 | 0.00 | 0.00 | 73 | 1014.5 |
| 20260510114507 | 68 | 104 | 3.0 | 10.0 | 0.00 | 0.00 | 0.00 | 74 | 1014.5 |
| 20260510113005 | 68 | 45 | 4.0 | 13.0 | 0.00 | 0.00 | 0.00 | 73 | 1014.2 |
| 20260510111505 | 68 | 48 | 8.0 | 15.0 | 0.00 | 0.00 | 0.00 | 73 | 1014.0 |
| 20260510110006 | 68 | 53 | 7.0 | 15.0 | 0.00 | 0.00 | 0.00 | 73 | 1014.2 |
| 20260510104504 | 69 | 51 | 11.0 | 24.0 | 0.00 | 0.00 | 0.00 | 74 | 1014.2 |
| 20260510103008 | 71 | 54 | 8.0 | 14.0 | 0.00 | 0.00 | 0.00 | 84 | 1014.0 |
| 20260510101507 | 71 | 80 | 5.0 | 13.0 | 0.00 | 0.00 | 0.00 | 84 | 1013.9 |
| 20260510100012 | 70 | 36 | 4.0 | 9.0 | 0.00 | 0.00 | 0.00 | 83 | 1013.8 |
| 20260510094506 | 69 | 46 | 3.0 | 7.0 | 0.00 | 0.00 | 0.00 | 82 | 1013.5 |
| 20260510093008 | 69 | 34 | 2.0 | 5.0 | 0.00 | 0.00 | 0.00 | 80 | 1012.9 |
| 20260510091507 | 69 | 56 | 1.0 | 3.0 | 0.00 | 0.00 | 0.00 | 80 | 1012.2 |
| 20260510090010 | 69 | 53 | 1.0 | 3.0 | 0.00 | 0.00 | 0.00 | 79 | 1012.1 |
| 20260510084508 | 69 | 69 | 0.0 | 2.0 | 0.00 | 0.00 | 0.00 | 79 | 1011.6 |
| 20260510083019 | 70 | 78 | 0.0 | 3.0 | 0.00 | 0.00 | 0.00 | 78 | 1011.1 |
| 20260510081508 | 71 | 110 | 0.0 | 1.0 | 0.00 | 0.00 | 0.00 | 78 | 1010.9 |
| 20260510080024 | 71 | 115 | 0.0 | 3.0 | 0.00 | 0.00 | 0.00 | 78 | 1010.3 |
| 20260510074514 | 72 | 111 | 0.0 | 0.0 | 0.00 | 0.00 | 0.00 | 78 | 1010.6 |
| 20260510073014 | 72 | 180 | 0.0 | 3.0 | 0.00 | 0.00 | 0.00 | 77 | 1011.0 |
| 20260510071513 | 72 | 178 | 0.0 | 3.0 | 0.00 | 0.00 | 0.00 | 77 | 1010.7 |
| 20260510070020 | 73 | 342 | 0.0 | 3.0 | 0.00 | 0.00 | 0.00 | 77 | 1011.5 |
| 20260510064519 | 73 | 171 | 1.0 | 8.0 | 0.00 | 0.00 | 0.00 | 77 | 1010.2 |
| 20260510063017 | 73 | 161 | 5.0 | 9.0 | 0.00 | 0.00 | 0.00 | 77 | 1009.8 |
| 20260510061516 | 73 | 186 | 1.0 | 9.0 | 0.00 | 0.00 | 0.00 | 77 | 1009.8 |
| 20260510060017 | 73 | 169 | 3.0 | 8.0 | 0.00 | 0.00 | 0.00 | 77 | 1010.0 |
| 20260510054518 | 73 | 123 | 3.0 | 7.0 | 0.00 | 0.00 | 0.00 | 77 | 1009.7 |
| 20260510053024 | 73 | 175 | 0.0 | 4.0 | 0.00 | 0.00 | 0.00 | 76 | 1009.6 |
| 20260510051503 | 73 | 119 | 2.0 | 6.0 | 0.00 | 0.00 | 0.00 | 75 | 1009.5 |
| 20260510050006 | 73 | 150 | 1.0 | 6.0 | 0.00 | 0.00 | 0.00 | 74 | 1009.3 |
| 20260510044518 | 73 | 128 | 3.0 | 6.0 | 0.00 | 0.00 | 0.00 | 74 | 1009.4 |
| 20260510043014 | 73 | 121 | 2.0 | 5.0 | 0.00 | 0.00 | 0.00 | 74 | 1009.6 |
| 20260510041520 | 74 | 96 | 2.0 | 4.0 | 0.00 | 0.00 | 0.00 | 73 | 1009.7 |
| 20260510040020 | 74 | 87 | 0.0 | 2.0 | 0.00 | 0.00 | 0.00 | 71 | 1009.7 |
| 20260510034506 | 74 | 122 | 0.0 | 0.0 | 0.00 | 0.00 | 0.00 | 68 | 1009.7 |
| 20260510033012 | 75 | 82 | 0.0 | 4.0 | 0.00 | 0.00 | 0.00 | 67 | 1009.9 |
| 20260510031514 | 76 | 86 | 1.0 | 3.0 | 0.00 | 0.00 | 0.00 | 66 | 1009.9 |
| 20260510030024 | 76 | 101 | 1.0 | 3.0 | 0.00 | 0.00 | 0.00 | 65 | 1009.8 |
| 20260510024525 | 76 | 118 | 0.0 | 0.0 | 0.00 | 0.00 | 0.00 | 65 | 1009.6 |
| 20260510023004 | 77 | 98 | 0.0 | 2.0 | 0.00 | 0.00 | 0.00 | 65 | 1009.4 |
| 20260510021514 | 77 | 90 | 0.0 | 3.0 | 0.00 | 0.00 | 0.00 | 65 | 1009.2 |
| 20260510020020 | 78 | 76 | 0.0 | 0.0 | 0.00 | 0.00 | 0.00 | 65 | 1009.0 |
| 20260510014520 | 78 | 84 | 0.0 | 2.0 | 0.00 | 0.00 | 0.00 | 65 | 1008.8 |
| 20260510013027 | 79 | 111 | 0.0 | 2.0 | 0.00 | 0.00 | 0.00 | 64 | 1008.7 |
| 20260510011516 | 80 | 77 | 2.0 | 4.0 | 0.00 | 0.00 | 0.00 | 63 | 1008.5 |
| 20260510010012 | 81 | 84 | 2.0 | 6.0 | 0.00 | 0.00 | 0.00 | 64 | 1008.3 |
| 20260510004517 | 82 | 80 | 3.0 | 7.0 | 0.00 | 0.00 | 0.00 | 64 | 1008.2 |
| 20260510003025 | 84 | 78 | 3.0 | 7.0 | 0.00 | 0.00 | 0.00 | 64 | 1008.1 |
| 20260510001527 | 84 | 71 | 3.0 | 8.0 | 0.00 | 0.00 | 0.00 | 63 | 1008.2 |
| 20260510000014 | 85 | 63 | 2.0 | 8.0 | 0.00 | 0.00 | 0.00 | 63 | 1008.0 |
| 20260509234514 | 86 | 51 | 3.0 | 6.0 | 0.00 | 0.00 | 0.00 | 61 | 1007.9 |
| 20260509233018 | 86 | 79 | 3.0 | 7.0 | 0.00 | 0.00 | 0.00 | 60 | 1007.9 |
| 20260509231522 | 87 | 63 | 2.0 | 7.0 | 0.00 | 0.00 | 0.00 | 58 | 1007.9 |
| 20260509230028 | 87 | 98 | 3.0 | 9.0 | 0.00 | 0.00 | 0.00 | 59 | 1008.0 |
| 20260509224512 | 88 | 58 | 4.0 | 7.0 | 0.00 | 0.00 | 0.00 | 58 | 1007.9 |
| 20260509223017 | 88 | 96 | 2.0 | 6.0 | 0.00 | 0.00 | 0.00 | 54 | 1007.8 |
| 20260509221521 | 88 | 237 | 0.0 | 1.0 | 0.00 | 0.00 | 0.00 | 55 | 1007.8 |
| 20260509220003 | 88 | 34 | 1.0 | 5.0 | 0.00 | 0.00 | 0.00 | 53 | 1007.9 |
| 20260509214513 | 88 | 40 | 6.0 | 9.0 | 0.00 | 0.00 | 0.00 | 53 | 1008.0 |
| 20260509213015 | 88 | 101 | 1.0 | 6.0 | 0.00 | 0.00 | 0.00 | 54 | 1008.1 |
| 20260509211520 | 88 | 341 | 3.0 | 8.0 | 0.00 | 0.00 | 0.00 | 49 | 1008.4 |
| 20260509210026 | 88 | 326 | 2.0 | 8.0 | 0.00 | 0.00 | 0.00 | 50 | 1008.6 |
| 20260509204535 | 88 | 300 | 4.0 | 9.0 | 0.00 | 0.00 | 0.00 | 48 | 1009.0 |
| 20260509203007 | 88 | 38 | 4.0 | 10.0 | 0.00 | 0.00 | 0.00 | 50 | 1009.1 |
| 20260509201514 | 87 | 332 | 3.0 | 7.0 | 0.00 | 0.00 | 0.00 | 49 | 1009.3 |
| 20260509200020 | 87 | 43 | 2.0 | 8.0 | 0.00 | 0.00 | 0.00 | 52 | 1009.4 |
| 20260509194528 | 86 | 227 | 2.0 | 9.0 | 0.00 | 0.00 | 0.00 | 54 | 1009.5 |
| 20260509193029 | 86 | 272 | 3.0 | 9.0 | 0.00 | 0.00 | 0.00 | 55 | 1009.6 |
| 20260509191518 | 86 | 327 | 5.0 | 9.0 | 0.00 | 0.00 | 0.00 | 56 | 1009.7 |
| 20260509190016 | 85 | 319 | 4.0 | 11.0 | 0.00 | 0.00 | 0.00 | 57 | 1009.8 |
| 20260509184538 | 85 | 276 | 7.0 | 10.0 | 0.00 | 0.00 | 0.00 | 58 | 1009.8 |
| 20260509183029 | 85 | 293 | 6.0 | 9.0 | 0.00 | 0.00 | 0.00 | 57 | 1009.9 |
| 20260509181528 | 84 | 320 | 4.0 | 11.0 | 0.00 | 0.00 | 0.00 | 57 | 1010.2 |
| 20260509180015 | 84 | 329 | 5.0 | 10.0 | 0.00 | 0.00 | 0.00 | 58 | 1010.3 |
| 20260509174518 | 84 | 5 | 6.0 | 13.0 | 0.00 | 0.00 | 0.00 | 59 | 1010.4 |
| 20260509173022 | 83 | 340 | 6.0 | 11.0 | 0.00 | 0.00 | 0.00 | 59 | 1010.6 |
| 20260509171533 | 83 | 328 | 5.0 | 11.0 | 0.00 | 0.00 | 0.00 | 58 | 1010.7 |
| 20260509170028 | 82 | 311 | 7.0 | 15.0 | 0.00 | 0.00 | 0.00 | 59 | 1010.8 |
| 20260509164517 | 82 | 340 | 6.0 | 15.0 | 0.00 | 0.00 | 0.00 | 59 | 1010.8 |
| 20260509163004 | 81 | 5 | 5.0 | 12.0 | 0.00 | 0.00 | 0.00 | 63 | 1010.8 |
| 20260509161507 | 81 | 306 | 5.0 | 12.0 | 0.00 | 0.00 | 0.00 | 64 | 1010.9 |
| 20260509160010 | 80 | 286 | 7.0 | 13.0 | 0.00 | 0.00 | 0.00 | 66 | 1010.8 |
| 20260509154517 | 80 | 348 | 6.0 | 13.0 | 0.00 | 0.00 | 0.00 | 65 | 1010.8 |
| 20260509153031 | 79 | 317 | 8.0 | 13.0 | 0.00 | 0.00 | 0.00 | 63 | 1010.8 |
| 20260509151504 | 78 | 298 | 6.0 | 14.0 | 0.00 | 0.00 | 0.00 | 69 | 1010.6 |
| 20260509150004 | 77 | 301 | 5.0 | 10.0 | 0.00 | 0.00 | 0.00 | 74 | 1010.6 |
| 20260509144523 | 76 | 280 | 6.0 | 11.0 | 0.00 | 0.00 | 0.00 | 75 | 1010.7 |
| 20260509143019 | 75 | 317 | 6.0 | 11.0 | 0.00 | 0.00 | 0.00 | 75 | 1010.7 |
| 20260509141529 | 75 | 294 | 8.0 | 12.0 | 0.00 | 0.00 | 0.00 | 75 | 1010.8 |